Weather at Saint Rémy de Maurienne

Public forecast

Using degrees Celsius for public forecast. Weather courtesy of forecast.io.

Closest aviation weather report (METAR) to Saint Rémy de Maurienne

Closest report is Chambéry-Savoie Airport, 22.9 nm (42.4 km) NW. Retrieved 2020/09/26 09:30 UTC (0 seconds ago):

LFLB 260930Z AUTO VRB02KT 9999 SCT027 BKN058 BKN070 12/06 Q1011 TEMPO 4000 SHRA BKN040TCU

Closest aviation forecast (TAF) to Saint Rémy de Maurienne

Closest forecast is Chambéry-Savoie Airport, 22.9 nm (42.4 km) NW. Retrieved 2020/09/26 06:21 UTC (3 hours ago):

TAF LFLB 260500Z 2606/2706 VRB03KT 9999 SCT040 BKN060 TEMPO 2609/2618 4000 SHRA BKN040TCU PROB40 TEMPO 2612/2618 VRB15G30KT 2000 -TSRA SCT035CB